createdAt,value
2017-09-11T00:02:18.752Z,11.00
2017-09-11T00:04:46.206Z,11.00
2017-09-11T00:07:13.644Z,11.00
2017-09-11T00:09:41.093Z,11.00
2017-09-11T00:12:09.306Z,11.10
2017-09-11T00:14:36.775Z,11.00
2017-09-11T00:17:04.219Z,11.10
2017-09-11T00:19:31.664Z,11.10
2017-09-11T00:21:59.119Z,11.10
2017-09-11T00:25:00.592Z,11.10
2017-09-11T00:27:28.034Z,11.00
2017-09-11T00:29:55.468Z,11.00
2017-09-11T00:32:22.908Z,11.00
2017-09-11T00:34:51.121Z,10.90
2017-09-11T00:37:18.571Z,10.90
2017-09-11T00:39:46.017Z,10.80
2017-09-11T00:42:13.483Z,10.80
2017-09-11T00:44:40.938Z,10.80
2017-09-11T00:47:08.369Z,10.80
2017-09-11T00:49:36.581Z,10.80
2017-09-11T00:52:04.031Z,10.80
2017-09-11T00:54:31.478Z,10.80
2017-09-11T00:56:58.934Z,10.90
2017-09-11T00:59:26.375Z,10.90
2017-09-11T01:01:53.823Z,10.90
2017-09-11T01:04:22.024Z,10.90
2017-09-11T01:06:49.480Z,10.90
2017-09-11T01:09:16.912Z,10.80
2017-09-11T01:11:44.360Z,10.80
2017-09-11T01:14:12.566Z,10.70
2017-09-11T01:16:40.020Z,10.80
2017-09-11T01:19:07.463Z,10.70
2017-09-11T01:21:34.919Z,10.60
2017-09-11T01:24:02.359Z,10.60
2017-09-11T01:26:30.568Z,10.60
2017-09-11T01:28:58.021Z,10.60
2017-09-11T01:31:25.460Z,10.50
2017-09-11T01:33:52.896Z,10.50
2017-09-11T01:36:21.103Z,10.50
2017-09-11T01:38:48.558Z,10.40
2017-09-11T01:41:15.990Z,10.40
2017-09-11T01:43:44.203Z,10.40
2017-09-11T01:46:11.647Z,10.30
2017-09-11T01:48:39.100Z,10.30
2017-09-11T01:51:06.539Z,10.40
2017-09-11T01:53:33.997Z,10.30
2017-09-11T01:56:01.434Z,10.30
2017-09-11T01:58:29.648Z,10.30
2017-09-11T02:00:57.083Z,10.30
2017-09-11T02:03:24.531Z,10.30
2017-09-11T02:05:52.732Z,10.50
2017-09-11T02:08:20.180Z,10.50
2017-09-11T02:10:47.619Z,10.50
2017-09-11T02:13:15.080Z,10.50
2017-09-11T02:15:42.517Z,10.60
2017-09-11T02:18:10.727Z,10.50
2017-09-11T02:20:38.715Z,10.50
2017-09-11T02:23:06.166Z,10.40
2017-09-11T02:25:33.606Z,10.50
2017-09-11T02:28:01.038Z,10.40
2017-09-11T02:30:28.483Z,10.40
2017-09-11T02:32:56.699Z,10.40
2017-09-11T02:35:24.153Z,10.40
2017-09-11T02:37:51.586Z,10.50
2017-09-11T02:40:19.031Z,10.30
2017-09-11T02:42:47.236Z,10.40
2017-09-11T02:45:14.691Z,10.40
2017-09-11T02:47:42.137Z,10.40
2017-09-11T02:50:09.575Z,10.40
2017-09-11T02:52:37.783Z,10.30
2017-09-11T02:55:05.231Z,10.30
2017-09-11T02:57:32.712Z,10.30
2017-09-11T03:00:00.124Z,10.20
2017-09-11T03:02:28.327Z,10.20
2017-09-11T03:04:55.777Z,10.20
2017-09-11T03:07:23.232Z,10.20
2017-09-11T03:09:50.682Z,10.20
2017-09-11T03:12:18.116Z,10.20
2017-09-11T03:14:46.315Z,10.20
2017-09-11T03:17:13.775Z,10.20
2017-09-11T03:19:41.216Z,10.20
2017-09-11T03:22:08.659Z,10.20
2017-09-11T03:24:36.867Z,10.10
2017-09-11T03:27:04.323Z,10.10
2017-09-11T03:29:31.769Z,10.10
2017-09-11T03:31:59.211Z,10.10
2017-09-11T03:34:26.644Z,10.00
2017-09-11T03:36:54.855Z,9.90
2017-09-11T03:39:22.287Z,9.90
2017-09-11T03:41:50.496Z,9.80
2017-09-11T03:44:17.940Z,9.80
2017-09-11T03:46:45.397Z,9.80
2017-09-11T03:49:12.855Z,9.80
2017-09-11T03:51:40.262Z,9.80
2017-09-11T03:54:07.711Z,9.80
2017-09-11T03:56:35.156Z,9.90
2017-09-11T03:59:02.612Z,9.90
2017-09-11T04:01:30.044Z,9.80
2017-09-11T04:03:57.487Z,9.80
2017-09-11T04:06:24.919Z,9.80
2017-09-11T04:08:52.368Z,9.70
2017-09-11T04:11:20.579Z,9.60
2017-09-11T04:13:48.028Z,9.60
2017-09-11T04:16:15.501Z,9.60
2017-09-11T04:18:42.941Z,9.50
2017-09-11T04:21:10.375Z,9.50
2017-09-11T04:23:38.587Z,9.50
2017-09-11T04:26:06.026Z,9.50
2017-09-11T04:28:33.485Z,9.50
2017-09-11T04:31:00.915Z,9.50
2017-09-11T04:33:28.383Z,9.50
2017-09-11T04:35:55.823Z,9.50
2017-09-11T04:38:24.024Z,9.60
2017-09-11T04:40:51.480Z,9.50
2017-09-11T04:43:18.910Z,9.50
2017-09-11T04:45:47.127Z,9.60
2017-09-11T04:48:14.567Z,9.60
2017-09-11T04:50:42.024Z,9.60
2017-09-11T04:53:09.460Z,9.60
2017-09-11T04:55:37.677Z,9.50
2017-09-11T04:58:05.106Z,9.50
2017-09-11T05:00:32.563Z,9.50
2017-09-11T05:03:00.004Z,9.50
2017-09-11T05:05:27.447Z,9.40
2017-09-11T05:07:55.649Z,9.30
2017-09-11T05:10:23.086Z,9.30
2017-09-11T05:12:50.525Z,9.30
2017-09-11T05:15:18.740Z,9.40
2017-09-11T05:17:46.171Z,9.40
2017-09-11T05:20:13.611Z,9.40
2017-09-11T05:22:41.820Z,9.40
2017-09-11T05:25:09.259Z,9.40
2017-09-11T05:27:36.705Z,9.50
2017-09-11T05:30:04.932Z,9.80
2017-09-11T05:32:32.366Z,9.80
2017-09-11T05:34:59.806Z,9.90
2017-09-11T05:37:27.243Z,9.90
2017-09-11T05:39:55.475Z,9.70
2017-09-11T05:42:22.911Z,9.70
2017-09-11T05:44:50.359Z,9.80
2017-09-11T05:47:17.818Z,9.90
2017-09-11T05:49:45.271Z,10.10
2017-09-11T05:52:12.702Z,10.10
2017-09-11T05:54:40.919Z,10.20
2017-09-11T05:57:08.366Z,10.20
2017-09-11T05:59:35.812Z,10.20
2017-09-11T06:02:03.272Z,10.30
2017-09-11T06:04:30.702Z,10.30
2017-09-11T06:06:58.152Z,10.30
2017-09-11T06:09:26.354Z,10.50
2017-09-11T06:11:53.811Z,10.50
2017-09-11T06:14:21.255Z,10.70
2017-09-11T06:16:48.701Z,10.70
2017-09-11T06:19:16.948Z,10.70
2017-09-11T06:21:44.395Z,10.70
2017-09-11T06:24:11.830Z,10.80
2017-09-11T06:26:39.287Z,10.80
2017-09-11T06:29:06.722Z,11.00
2017-09-11T06:31:34.178Z,11.10
2017-09-11T06:34:01.654Z,11.20
2017-09-11T06:36:29.146Z,11.30
2017-09-11T06:38:56.591Z,11.30
2017-09-11T06:41:24.032Z,11.40
2017-09-11T06:43:51.485Z,11.40
2017-09-11T06:46:18.915Z,11.40
2017-09-11T06:48:46.372Z,11.50
2017-09-11T06:51:13.814Z,11.60
2017-09-11T06:53:41.255Z,11.60
2017-09-11T06:56:09.458Z,11.90
2017-09-11T06:58:36.915Z,11.80
2017-09-11T07:01:04.360Z,12.10
2017-09-11T07:03:31.795Z,12.20
2017-09-11T07:06:00.010Z,12.60
2017-09-11T07:08:27.454Z,12.60
2017-09-11T07:10:54.899Z,12.80
2017-09-11T07:13:34.195Z,12.90
2017-09-11T07:16:01.635Z,13.10
2017-09-11T07:18:29.091Z,13.30
2017-09-11T07:20:56.534Z,13.60
2017-09-11T07:23:23.987Z,13.80
2017-09-11T07:25:51.425Z,14.00
2017-09-11T07:28:18.899Z,14.20
2017-09-11T07:30:46.337Z,14.40
2017-09-11T07:33:13.780Z,14.50
2017-09-11T07:35:41.227Z,14.60
2017-09-11T07:38:09.435Z,14.90
2017-09-11T07:40:36.883Z,14.90
2017-09-11T07:43:04.323Z,15.20
2017-09-11T07:45:31.771Z,15.50
2017-09-11T07:47:59.206Z,15.60
2017-09-11T07:50:27.428Z,16.30
2017-09-11T07:52:54.863Z,16.30
2017-09-11T07:55:22.306Z,16.80
2017-09-11T07:57:50.507Z,17.40
2017-09-11T08:00:17.968Z,17.40
2017-09-11T08:02:45.394Z,17.10
2017-09-11T08:05:12.834Z,16.20
2017-09-11T08:07:41.052Z,16.10
2017-09-11T08:10:08.503Z,16.10
2017-09-11T08:12:35.943Z,16.40
2017-09-11T08:15:03.396Z,16.40
2017-09-11T08:17:30.830Z,16.10
2017-09-11T08:19:59.047Z,17.00
2017-09-11T08:22:26.496Z,17.00
2017-09-11T08:24:53.930Z,16.70
2017-09-11T08:27:22.144Z,17.90
2017-09-11T08:29:49.588Z,17.80
2017-09-11T08:32:17.030Z,17.80
2017-09-11T08:34:44.507Z,18.20
2017-09-11T08:37:11.938Z,18.30
2017-09-11T08:39:39.380Z,18.10
2017-09-11T08:42:07.588Z,17.30
2017-09-11T08:44:35.030Z,17.30
2017-09-11T08:47:02.479Z,16.70
2017-09-11T08:49:29.910Z,16.70
2017-09-11T08:51:58.128Z,16.80
2017-09-11T08:54:25.577Z,16.80
2017-09-11T08:56:53.032Z,16.80
2017-09-11T08:59:20.462Z,16.70
2017-09-11T09:01:48.684Z,16.30
2017-09-11T09:04:16.127Z,16.30
2017-09-11T09:06:43.587Z,16.30
2017-09-11T09:09:11.024Z,16.30
2017-09-11T09:11:38.497Z,16.50
2017-09-11T09:14:05.936Z,16.60
2017-09-11T09:16:33.375Z,16.70
2017-09-11T09:19:01.591Z,16.80
2017-09-11T09:21:29.038Z,16.80
2017-09-11T09:23:56.491Z,16.80
2017-09-11T09:26:23.938Z,16.70
2017-09-11T09:28:51.378Z,16.60
2017-09-11T09:31:19.586Z,16.50
2017-09-11T09:33:47.039Z,16.50
2017-09-11T09:36:14.474Z,16.50
2017-09-11T09:38:41.919Z,16.60
2017-09-11T09:41:10.120Z,16.60
2017-09-11T09:43:37.577Z,16.60
2017-09-11T09:46:05.010Z,16.60
2017-09-11T09:48:33.231Z,16.50
2017-09-11T09:51:00.670Z,16.50
2017-09-11T09:53:28.119Z,16.50
2017-09-11T09:55:55.559Z,16.60
2017-09-11T09:58:23.029Z,16.60
2017-09-11T10:00:50.471Z,16.70
2017-09-11T10:03:17.906Z,16.70
2017-09-11T10:05:46.122Z,16.60
2017-09-11T10:08:13.576Z,16.60
2017-09-11T10:10:41.027Z,16.70
2017-09-11T10:13:08.470Z,16.80
2017-09-11T10:15:35.955Z,17.00
2017-09-11T10:18:03.367Z,17.30
2017-09-11T10:20:31.578Z,17.50
2017-09-11T10:22:59.031Z,17.50
2017-09-11T10:25:26.483Z,17.70
2017-09-11T10:27:53.924Z,17.60
2017-09-11T10:30:21.363Z,17.50
2017-09-11T10:32:49.566Z,17.50
2017-09-11T10:35:17.035Z,17.50
2017-09-11T10:37:44.480Z,17.50
2017-09-11T10:40:11.936Z,17.40
2017-09-11T10:42:39.375Z,17.90
2017-09-11T10:45:07.590Z,19.40
2017-09-11T10:47:35.026Z,19.40
2017-09-11T10:50:02.492Z,19.90
2017-09-11T10:52:29.933Z,19.90
2017-09-11T10:54:57.375Z,19.00
2017-09-11T10:57:24.811Z,19.00
2017-09-11T10:59:53.019Z,19.60
2017-09-11T11:02:20.475Z,19.60
2017-09-11T11:04:47.931Z,20.50
2017-09-11T11:07:15.375Z,20.30
2017-09-11T11:09:42.806Z,20.50
2017-09-11T11:12:11.018Z,21.10
2017-09-11T11:14:38.455Z,21.10
2017-09-11T11:17:05.899Z,20.90
2017-09-11T11:19:34.111Z,20.20
2017-09-11T11:22:01.574Z,20.10
2017-09-11T11:24:29.023Z,20.50
2017-09-11T11:26:56.498Z,20.10
2017-09-11T11:29:23.951Z,20.20
2017-09-11T11:31:51.394Z,19.70
2017-09-11T11:34:24.703Z,19.40
2017-09-11T11:36:52.146Z,19.60
2017-09-11T11:39:19.594Z,19.50
2017-09-11T11:41:47.047Z,20.30
2017-09-11T11:44:14.506Z,21.00
2017-09-11T11:46:41.938Z,20.40
2017-09-11T11:49:09.387Z,20.60
2017-09-11T11:51:37.618Z,20.10
2017-09-11T11:54:05.044Z,20.10
2017-09-11T11:56:32.483Z,20.20
2017-09-11T11:58:59.922Z,19.80
2017-09-11T12:01:28.129Z,19.60
2017-09-11T12:03:55.584Z,19.60
2017-09-11T12:06:23.064Z,19.80
2017-09-11T12:08:50.511Z,20.00
2017-09-11T12:11:17.960Z,19.30
2017-09-11T12:13:45.416Z,18.10
2017-09-11T12:16:13.627Z,16.70
2017-09-11T12:18:41.082Z,16.60
2017-09-11T12:21:08.527Z,16.20
2017-09-11T12:23:35.990Z,15.80
2017-09-11T12:26:03.442Z,15.60
2017-09-11T12:28:30.898Z,15.60
2017-09-11T12:30:58.334Z,15.30
2017-09-11T12:33:25.781Z,15.20
2017-09-11T12:35:53.237Z,15.10
2017-09-11T12:38:20.675Z,15.00
2017-09-11T12:40:48.118Z,14.80
2017-09-11T12:43:16.332Z,14.70
2017-09-11T12:45:43.795Z,14.70
2017-09-11T12:48:11.235Z,14.60
2017-09-11T12:50:39.224Z,14.20
2017-09-11T12:53:06.658Z,14.30
2017-09-11T12:55:34.113Z,14.10
2017-09-11T12:58:01.546Z,13.90
2017-09-11T13:00:28.996Z,13.80
2017-09-11T13:02:57.204Z,13.90
2017-09-11T13:05:24.652Z,13.90
2017-09-11T13:07:52.211Z,14.30
2017-09-11T13:10:19.670Z,14.70
2017-09-11T13:12:47.123Z,14.90
2017-09-11T13:15:14.579Z,15.50
2017-09-11T13:17:42.030Z,15.70
2017-09-11T13:20:09.462Z,16.00
2017-09-11T13:22:37.704Z,16.70
2017-09-11T13:25:05.147Z,16.70
2017-09-11T13:27:33.364Z,15.90
2017-09-11T13:30:01.574Z,15.10
2017-09-11T13:32:29.062Z,15.10
2017-09-11T13:34:56.506Z,15.30
2017-09-11T13:37:23.964Z,15.90
2017-09-11T13:39:51.420Z,16.50
2017-09-11T13:42:18.881Z,16.80
2017-09-11T13:44:46.331Z,17.10
2017-09-11T13:47:13.788Z,17.10
2017-09-11T13:49:41.235Z,17.30
2017-09-11T13:52:08.699Z,17.50
2017-09-11T13:54:36.143Z,17.70
2017-09-11T13:57:03.594Z,17.90
2017-09-11T13:59:31.049Z,18.00
2017-09-11T14:01:58.502Z,17.80
2017-09-11T14:04:25.959Z,17.00
2017-09-11T14:06:53.416Z,16.90
2017-09-11T14:09:20.875Z,16.80
2017-09-11T14:11:48.327Z,17.20
2017-09-11T14:14:15.782Z,17.10
2017-09-11T14:16:43.239Z,17.20
2017-09-11T14:19:10.697Z,17.40
2017-09-11T14:21:38.132Z,17.20
2017-09-11T14:24:05.582Z,17.40
2017-09-11T14:26:33.018Z,17.30
2017-09-11T14:29:01.342Z,17.50
2017-09-11T14:31:28.800Z,17.50
2017-09-11T14:33:56.251Z,17.60
2017-09-11T14:36:24.010Z,17.20
2017-09-11T14:38:51.539Z,17.50
2017-09-11T14:41:19.757Z,17.90
2017-09-11T14:43:47.203Z,17.80
2017-09-11T14:46:14.644Z,17.80
2017-09-11T14:48:42.198Z,17.80
2017-09-11T14:51:09.639Z,17.70
2017-09-11T14:53:37.850Z,17.60
2017-09-11T14:56:05.285Z,17.60
2017-09-11T14:58:32.727Z,17.60
2017-09-11T15:01:00.944Z,17.50
2017-09-11T15:03:28.399Z,17.50
2017-09-11T15:05:55.850Z,17.20
2017-09-11T15:08:23.304Z,17.10
2017-09-11T15:10:50.758Z,17.20
2017-09-11T15:13:18.198Z,17.30
2017-09-11T15:15:45.639Z,17.40
2017-09-11T15:18:13.843Z,17.50
2017-09-11T15:20:41.298Z,17.50
2017-09-11T15:23:08.738Z,17.70
2017-09-11T15:25:36.187Z,17.80
2017-09-11T15:28:03.631Z,17.80
2017-09-11T15:30:31.843Z,17.80
2017-09-11T15:32:59.283Z,17.80
2017-09-11T15:35:26.739Z,17.70
2017-09-11T15:37:54.169Z,17.90
2017-09-11T15:40:22.383Z,17.90
2017-09-11T15:42:49.822Z,17.90
2017-09-11T15:45:17.266Z,18.00
2017-09-11T15:47:45.479Z,18.10
2017-09-11T15:50:12.924Z,18.00
2017-09-11T15:52:40.362Z,18.10
2017-09-11T15:55:07.825Z,18.10
2017-09-11T15:57:35.251Z,17.90
2017-09-11T16:00:03.466Z,17.80
2017-09-11T16:02:30.907Z,17.70
2017-09-11T16:04:58.371Z,17.70
2017-09-11T16:07:25.803Z,17.30
2017-09-11T16:09:54.035Z,17.30
2017-09-11T16:12:21.567Z,17.30
2017-09-11T16:14:48.991Z,17.30
2017-09-11T16:17:17.212Z,17.40
2017-09-11T16:19:44.652Z,17.30
2017-09-11T16:22:12.110Z,17.40
2017-09-11T16:24:39.547Z,17.30
2017-09-11T16:27:07.003Z,17.20
2017-09-11T16:29:34.438Z,17.30
2017-09-11T16:32:02.651Z,17.20
2017-09-11T16:34:30.091Z,17.20
2017-09-11T16:36:57.546Z,17.20
2017-09-11T16:39:24.991Z,17.10
2017-09-11T16:41:53.202Z,17.00
2017-09-11T16:44:20.647Z,17.00
2017-09-11T16:46:48.104Z,16.90
2017-09-11T16:49:15.591Z,16.90
2017-09-11T16:51:43.046Z,16.90
2017-09-11T16:56:44.447Z,16.90
2017-09-11T16:59:12.655Z,16.70
2017-09-11T17:01:40.115Z,16.70
2017-09-11T17:04:07.559Z,16.70
2017-09-11T17:06:34.998Z,16.60
2017-09-11T17:09:02.438Z,16.50
2017-09-11T17:11:30.659Z,16.40
2017-09-11T17:13:58.113Z,16.40
2017-09-11T17:16:25.593Z,16.30
2017-09-11T17:18:53.023Z,16.20
2017-09-11T17:21:20.458Z,16.10
2017-09-11T17:23:47.902Z,16.20
2017-09-11T17:26:16.111Z,16.00
2017-09-11T17:28:43.564Z,16.00
2017-09-11T17:31:11.006Z,15.80
2017-09-11T17:33:38.456Z,15.80
2017-09-11T17:36:05.924Z,15.80
2017-09-11T17:38:33.359Z,15.80
2017-09-11T17:41:01.563Z,15.60
2017-09-11T17:43:29.019Z,15.60
2017-09-11T17:45:56.458Z,15.60
2017-09-11T17:48:23.903Z,15.50
2017-09-11T17:50:52.112Z,15.50
2017-09-11T17:53:19.563Z,15.40
2017-09-11T17:55:46.998Z,15.50
2017-09-11T17:58:14.475Z,15.50
2017-09-11T18:00:42.183Z,15.40
2017-09-11T18:03:09.655Z,15.40
2017-09-11T18:05:37.875Z,15.60
2017-09-11T18:08:05.321Z,15.50
2017-09-11T18:10:32.776Z,15.50
2017-09-11T18:13:00.538Z,15.60
2017-09-11T18:15:28.014Z,15.60
2017-09-11T18:17:55.451Z,15.60
2017-09-11T18:20:22.895Z,15.50
2017-09-11T18:22:50.340Z,15.40
2017-09-11T18:25:17.795Z,15.40
2017-09-11T18:27:45.238Z,15.30
2017-09-11T18:30:12.680Z,15.30
2017-09-11T18:32:40.899Z,15.30
2017-09-11T18:35:09.111Z,15.20
2017-09-11T18:37:36.547Z,15.20
2017-09-11T18:40:04.029Z,15.20
2017-09-11T18:42:32.236Z,15.10
2017-09-11T18:45:00.442Z,15.00
2017-09-11T18:47:27.882Z,15.00
2017-09-11T18:49:55.327Z,15.00
2017-09-11T18:52:22.780Z,14.90
2017-09-11T18:54:50.318Z,14.90
2017-09-11T18:57:17.758Z,14.80
2017-09-11T18:59:45.971Z,14.90
2017-09-11T19:02:13.431Z,14.80
2017-09-11T19:04:40.888Z,14.80
2017-09-11T19:07:08.344Z,14.80
2017-09-11T19:09:35.799Z,14.80
2017-09-11T19:12:03.257Z,14.70
2017-09-11T19:14:30.695Z,14.80
2017-09-11T19:16:58.144Z,14.60
2017-09-11T19:19:25.585Z,14.50
2017-09-11T19:21:53.798Z,14.60
2017-09-11T19:24:21.255Z,14.50
2017-09-11T19:26:48.707Z,14.50
2017-09-11T19:29:16.163Z,14.40
2017-09-11T19:31:43.621Z,14.40
2017-09-11T19:34:11.062Z,14.30
2017-09-11T19:36:38.499Z,14.30
2017-09-11T19:39:06.711Z,14.30
2017-09-11T19:41:34.163Z,14.30
2017-09-11T19:44:01.617Z,14.10
2017-09-11T19:46:29.054Z,14.00
2017-09-11T19:48:57.259Z,13.70
2017-09-11T19:51:24.702Z,13.70
2017-09-11T19:53:52.159Z,13.90
2017-09-11T19:56:19.645Z,13.80
2017-09-11T19:58:47.098Z,13.70
2017-09-11T20:01:14.635Z,13.80
2017-09-11T20:03:42.094Z,13.80
2017-09-11T20:06:09.538Z,14.00
2017-09-11T20:08:36.967Z,13.90
2017-09-11T20:11:05.172Z,13.50
2017-09-11T20:13:32.613Z,13.50
2017-09-11T20:16:00.053Z,13.30
2017-09-11T20:18:28.287Z,13.20
2017-09-11T20:20:55.735Z,13.20
2017-09-11T20:23:23.170Z,13.10
2017-09-11T20:25:50.626Z,12.90
2017-09-11T20:28:18.080Z,12.90
2017-09-11T20:30:45.523Z,12.70
2017-09-11T20:33:12.963Z,12.50
2017-09-11T20:35:41.185Z,12.50
2017-09-11T20:38:08.631Z,12.40
2017-09-11T20:40:36.080Z,12.50
2017-09-11T20:43:03.539Z,12.50
2017-09-11T20:45:30.984Z,12.30
2017-09-11T20:47:58.453Z,12.30
2017-09-11T20:50:25.886Z,12.10
2017-09-11T20:52:54.095Z,11.90
2017-09-11T20:55:21.530Z,11.90
2017-09-11T20:57:48.978Z,11.70
2017-09-11T21:00:17.181Z,11.50
2017-09-11T21:02:44.629Z,11.50
2017-09-11T21:05:12.063Z,11.50
2017-09-11T21:07:40.288Z,11.40
2017-09-11T21:10:08.496Z,11.40
2017-09-11T21:12:35.944Z,11.40
2017-09-11T21:15:03.386Z,11.40
2017-09-11T21:17:31.604Z,11.70
2017-09-11T21:19:59.047Z,11.70
2017-09-11T21:22:27.260Z,11.60
2017-09-11T21:24:54.699Z,11.60
2017-09-11T21:27:22.148Z,11.70
2017-09-11T21:29:49.583Z,11.70
2017-09-11T21:32:17.802Z,11.80
2017-09-11T21:34:45.255Z,11.80
2017-09-11T21:37:12.695Z,11.90
2017-09-11T21:39:40.151Z,12.00
2017-09-11T21:42:07.592Z,11.90
2017-09-11T21:44:35.807Z,11.80
2017-09-11T21:47:03.251Z,11.80
2017-09-11T21:49:30.708Z,11.80
2017-09-11T21:51:58.146Z,11.70
2017-09-11T21:54:25.603Z,11.70
2017-09-11T21:56:53.038Z,11.80
2017-09-11T21:59:21.249Z,11.80
2017-09-11T22:01:48.695Z,11.80
2017-09-11T22:04:16.459Z,11.80
2017-09-11T22:06:43.914Z,12.00
2017-09-11T22:09:11.357Z,11.90
2017-09-11T22:11:38.802Z,11.80
2017-09-11T22:14:06.242Z,11.90
2017-09-11T22:16:34.467Z,12.20
2017-09-11T22:19:01.899Z,12.20
2017-09-11T22:21:29.350Z,11.90
2017-09-11T22:23:56.786Z,12.10
2017-09-11T22:26:24.994Z,12.40
2017-09-11T22:28:52.470Z,12.40
2017-09-11T22:31:19.925Z,12.70
2017-09-11T22:33:47.369Z,13.10
2017-09-11T22:36:14.811Z,13.30
2017-09-11T22:38:42.262Z,13.30
2017-09-11T22:41:09.717Z,13.10
2017-09-11T22:43:37.152Z,12.80
2017-09-11T22:46:05.380Z,12.60
2017-09-11T22:48:32.866Z,12.60
2017-09-11T22:51:00.323Z,12.50
2017-09-11T22:53:27.755Z,12.40
2017-09-11T22:55:55.214Z,12.70
2017-09-11T22:58:22.658Z,13.00
2017-09-11T23:00:50.103Z,12.80
2017-09-11T23:03:17.552Z,12.80
2017-09-11T23:05:45.105Z,13.20
2017-09-11T23:08:12.554Z,13.50
2017-09-11T23:10:40.011Z,13.70
2017-09-11T23:13:07.449Z,13.50
2017-09-11T23:15:35.663Z,13.80
2017-09-11T23:18:03.106Z,13.70
2017-09-11T23:20:30.553Z,13.70
2017-09-11T23:22:58.009Z,13.50
2017-09-11T23:25:25.450Z,13.50
2017-09-11T23:27:53.663Z,13.10
2017-09-11T23:30:21.098Z,13.10
2017-09-11T23:32:48.559Z,13.00
2017-09-11T23:35:15.991Z,12.90
2017-09-11T23:37:43.440Z,13.10
2017-09-11T23:40:11.648Z,13.20
2017-09-11T23:42:39.099Z,13.20
2017-09-11T23:45:06.543Z,13.20
2017-09-11T23:47:33.987Z,12.90
2017-09-11T23:50:01.422Z,12.80
2017-09-11T23:52:29.643Z,12.90
2017-09-11T23:54:57.072Z,12.90
2017-09-11T23:57:25.299Z,13.20
2017-09-11T23:59:52.747Z,13.10
